Skip Navigation LinksHome page > Weather > Current weather Skip Navigation Links

Current Weather

Los Angeles Intl, Los Angeles

For information only: do not use for flight planning or navigation.
Latest weather
Observation time Monday, June 21, 2021 5:53 PM PDT
Local time Monday, June 21, 2021 6:43 PM PDT
Flight conditions Visual Meteorological Conditions
Winds
Wind direction West (260°)
Wind speed 18 mph
Visibility 10 mi.
Sky condition
Ceiling unlimited
Cloud layer scattered clouds 1,200 ft.
Temperature 66°F
Dewpoint 58°F
Altimeter 29.95 in.Hg
Derived measurements
Relative humidity 75%
Density altitude 778 ft.
Sea-level pressure 29.94 in.Hg
Remarks
System requires maintenance.
Automated weather observing station with precipitation discriminator.
METAR KLAX 220053Z 26016KT 10SM SCT012 19/14 A2995 RMK AO2 SLP140 T01890144 $

Settings

Location code

InnerDrive.Weather 4.0.6770.0 Release CLR 4.0.30319.42000
Copyright ©2018 Inner Drive Technology. All rights reserved. Portions Copyright ©1986-2018 David Braverman.

Find weather

Site navigation


Skip Navigation Links

Place info

Page info

PayPal - The safer, easier way to pay online!

Return home.

Copyright ©2021 Inner Drive Technology. Purveyors of fine, hand-crafted computer software. Page printed 2021-06-22T01:43:57 UTC.